createdAt,value
2019-05-06T00:02:04.427Z,3.40
2019-05-06T00:05:08.346Z,2.97
2019-05-06T00:08:14.344Z,2.67
2019-05-06T00:11:18.435Z,3.10
2019-05-06T00:14:23.526Z,3.20
2019-05-06T00:17:27.784Z,3.43
2019-05-06T00:20:31.784Z,3.60
2019-05-06T00:23:40.561Z,3.37
2019-05-06T00:26:57.621Z,3.07
2019-05-06T00:30:04.479Z,3.60
2019-05-06T00:33:08.564Z,3.10
2019-05-06T00:36:14.180Z,3.37
2019-05-06T00:39:33.976Z,3.63
2019-05-06T00:42:41.987Z,3.50
2019-05-06T00:45:45.836Z,3.83
2019-05-06T00:48:50.070Z,3.33
2019-05-06T00:51:55.026Z,3.20
2019-05-06T00:54:59.061Z,3.00
2019-05-06T00:58:04.103Z,3.40
2019-05-06T01:01:08.698Z,3.10
2019-05-06T01:04:13.920Z,3.60
2019-05-06T01:07:18.062Z,3.23
2019-05-06T01:10:23.825Z,3.60
2019-05-06T01:13:49.917Z,3.90
2019-05-06T01:16:54.737Z,3.53
2019-05-06T01:19:59.171Z,3.40
2019-05-06T01:23:03.838Z,4.43
2019-05-06T01:26:07.922Z,3.63
2019-05-06T01:29:14.562Z,3.50
2019-05-06T01:32:19.215Z,3.07
2019-05-06T01:35:24.506Z,3.37
2019-05-06T01:38:34.063Z,3.57
2019-05-06T01:42:04.455Z,3.43
2019-05-06T01:45:09.563Z,4.10
2019-05-06T01:48:14.351Z,4.07
2019-05-06T01:51:24.178Z,3.07
2019-05-06T01:54:27.771Z,3.37
2019-05-06T01:57:33.694Z,3.80
2019-05-06T02:00:39.521Z,3.60
2019-05-06T02:03:44.246Z,3.53
2019-05-06T02:06:48.461Z,4.47
2019-05-06T02:09:54.194Z,7.23
2019-05-06T02:12:58.344Z,5.80
2019-05-06T02:16:03.973Z,5.30
2019-05-06T02:19:08.157Z,5.63
2019-05-06T02:22:23.585Z,5.50
2019-05-06T02:25:34.240Z,4.47
2019-05-06T02:28:40.049Z,4.90
2019-05-06T02:32:16.171Z,4.43
2019-05-06T02:35:14.883Z,4.90
2019-05-06T02:38:39.140Z,5.30
2019-05-06T02:41:37.209Z,4.70
2019-05-06T02:44:44.245Z,5.07
2019-05-06T02:48:05.559Z,5.27
2019-05-06T02:51:13.370Z,6.43
2019-05-06T02:54:17.880Z,7.20
2019-05-06T02:57:23.857Z,6.93
2019-05-06T03:00:27.771Z,8.00
2019-05-06T03:03:33.787Z,9.13
2019-05-06T03:06:38.449Z,7.97
2019-05-06T03:09:44.544Z,5.80
2019-05-06T03:12:48.229Z,6.07
2019-05-06T03:15:54.123Z,6.20
2019-05-06T03:18:58.710Z,5.77
2019-05-06T03:22:24.059Z,5.67
2019-05-06T03:25:29.557Z,5.20
2019-05-06T03:28:34.569Z,5.10
2019-05-06T03:31:38.954Z,4.97
2019-05-06T03:35:01.224Z,4.73
2019-05-06T03:37:49.531Z,4.47
2019-05-06T03:40:54.160Z,4.40
2019-05-06T03:43:58.887Z,4.83
2019-05-06T03:47:34.964Z,4.67
2019-05-06T03:50:38.965Z,4.47
2019-05-06T03:53:44.251Z,5.37
2019-05-06T03:56:50.273Z,5.60
2019-05-06T03:59:55.435Z,6.03
2019-05-06T04:03:02.882Z,6.27
2019-05-06T04:06:05.787Z,5.87
2019-05-06T04:09:13.004Z,5.67
2019-05-06T04:12:16.993Z,5.60
2019-05-06T04:15:22.970Z,5.50
2019-05-06T04:18:29.385Z,5.07
2019-05-06T04:21:44.514Z,5.50
2019-05-06T04:24:59.077Z,5.20
2019-05-06T04:28:12.915Z,4.90
2019-05-06T04:31:17.247Z,4.97
2019-05-06T04:34:23.386Z,4.97
2019-05-06T04:37:27.850Z,5.90
2019-05-06T04:40:33.119Z,5.20
2019-05-06T04:43:37.704Z,4.93
2019-05-06T04:46:44.363Z,5.43
2019-05-06T04:49:48.054Z,5.47
2019-05-06T04:53:04.837Z,5.33
2019-05-06T04:56:08.494Z,6.67
2019-05-06T04:59:13.982Z,7.07
2019-05-06T05:02:18.947Z,7.20
2019-05-06T05:05:23.209Z,7.73
2019-05-06T05:08:39.235Z,6.40
2019-05-06T05:11:56.528Z,6.33
2019-05-06T05:15:19.789Z,6.87
2019-05-06T05:18:32.013Z,6.60
2019-05-06T05:21:36.771Z,6.37
2019-05-06T05:24:42.542Z,6.97
2019-05-06T05:27:46.915Z,6.77
2019-05-06T05:30:52.224Z,6.03
2019-05-06T05:33:57.482Z,6.70
2019-05-06T05:37:03.066Z,5.47
2019-05-06T05:40:07.359Z,6.30
2019-05-06T05:43:39.415Z,5.87
2019-05-06T05:46:43.873Z,6.17
2019-05-06T05:50:08.244Z,6.00
2019-05-06T05:53:12.532Z,5.60
2019-05-06T05:56:16.516Z,5.90
2019-05-06T05:59:23.244Z,6.03
2019-05-06T06:02:26.989Z,6.23
2019-05-06T06:05:32.997Z,6.47
2019-05-06T06:08:37.397Z,5.70
2019-05-06T06:11:48.424Z,5.63
2019-05-06T06:15:14.263Z,5.70
2019-05-06T06:18:27.944Z,5.67
2019-05-06T06:21:48.203Z,6.13
2019-05-06T06:24:52.629Z,6.20
2019-05-06T06:27:57.475Z,5.83
2019-05-06T06:31:17.517Z,5.43
2019-05-06T06:34:27.313Z,6.00
2019-05-06T06:38:02.877Z,5.20
2019-05-06T06:41:06.879Z,6.27
2019-05-06T06:44:14.538Z,5.67
2019-05-06T06:47:18.927Z,5.03
2019-05-06T06:50:24.023Z,5.73
2019-05-06T06:53:28.428Z,5.80
2019-05-06T06:57:03.215Z,5.60
2019-05-06T07:00:06.145Z,5.10
2019-05-06T07:03:12.966Z,5.77
2019-05-06T07:06:27.514Z,5.73
2019-05-06T07:09:32.341Z,5.97
2019-05-06T07:12:36.885Z,5.60
2019-05-06T07:15:42.661Z,5.50
2019-05-06T07:18:46.636Z,5.93
2019-05-06T07:21:56.177Z,5.43
2019-05-06T07:25:03.562Z,5.03
2019-05-06T07:28:06.174Z,5.60
2019-05-06T07:31:20.701Z,5.53
2019-05-06T07:34:15.831Z,5.40
2019-05-06T07:37:21.959Z,4.77
2019-05-06T07:40:25.952Z,4.50
2019-05-06T07:43:46.907Z,5.93
2019-05-06T07:46:57.392Z,4.63
2019-05-06T07:50:02.568Z,3.70
2019-05-06T07:53:06.950Z,3.70
2019-05-06T07:56:12.648Z,5.00
2019-05-06T07:59:16.959Z,4.33
2019-05-06T08:02:22.850Z,4.70
2019-05-06T08:05:27.468Z,4.67
2019-05-06T08:08:33.429Z,4.47
2019-05-06T08:11:37.700Z,4.73
2019-05-06T08:14:43.434Z,5.20
2019-05-06T08:17:47.916Z,4.27
2019-05-06T08:20:52.203Z,5.70
2019-05-06T08:23:56.535Z,5.57
2019-05-06T08:27:02.895Z,5.40
2019-05-06T08:30:07.208Z,5.80
2019-05-06T08:33:12.904Z,4.77
2019-05-06T08:36:23.832Z,4.53
2019-05-06T08:39:27.934Z,3.93
2019-05-06T08:42:32.914Z,4.67
2019-05-06T08:45:37.431Z,4.37
2019-05-06T08:48:42.826Z,5.00
2019-05-06T08:51:57.113Z,4.50
2019-05-06T08:55:02.928Z,3.83
2019-05-06T08:58:07.985Z,3.63
2019-05-06T09:01:15.051Z,4.00
2019-05-06T09:04:19.157Z,4.10
2019-05-06T09:07:23.869Z,3.87
2019-05-06T09:10:28.296Z,3.43
2019-05-06T09:13:32.704Z,3.40
2019-05-06T09:16:37.175Z,4.83
2019-05-06T09:19:42.655Z,3.70
2019-05-06T09:22:47.043Z,3.00
2019-05-06T09:25:53.069Z,2.70
2019-05-06T09:29:03.824Z,2.60
2019-05-06T09:32:13.977Z,3.10
2019-05-06T09:35:18.286Z,3.23
2019-05-06T09:38:22.901Z,3.10
2019-05-06T09:41:27.132Z,3.40
2019-05-06T09:44:33.000Z,3.07
2019-05-06T09:47:56.484Z,2.70
2019-05-06T09:51:02.893Z,2.60
2019-05-06T09:54:32.445Z,2.60
2019-05-06T09:57:55.819Z,3.13
2019-05-06T10:01:02.721Z,3.10
2019-05-06T10:04:09.771Z,2.70
2019-05-06T10:07:14.119Z,3.20
2019-05-06T10:10:18.046Z,2.53
2019-05-06T10:13:22.089Z,2.40
2019-05-06T10:16:26.539Z,3.10
2019-05-06T10:19:32.093Z,2.67
2019-05-06T10:22:36.293Z,2.73
2019-05-06T10:25:43.365Z,2.27
2019-05-06T10:29:22.272Z,2.70
2019-05-06T10:32:42.629Z,2.73
2019-05-06T10:35:46.777Z,3.00
2019-05-06T10:38:58.062Z,2.80
2019-05-06T10:42:13.989Z,2.83
2019-05-06T10:45:28.401Z,3.00
2019-05-06T10:48:32.593Z,2.77
2019-05-06T10:51:47.991Z,2.87
2019-05-06T10:54:52.252Z,2.70
2019-05-06T10:57:56.642Z,2.43
2019-05-06T11:01:25.814Z,2.70
2019-05-06T11:04:29.836Z,2.30
2019-05-06T11:07:35.406Z,2.13
2019-05-06T11:10:44.138Z,2.60
2019-05-06T11:13:46.237Z,2.63
2019-05-06T11:16:50.115Z,2.30
2019-05-06T11:19:53.967Z,2.80
2019-05-06T11:22:58.557Z,2.33
2019-05-06T11:26:03.135Z,2.17
2019-05-06T11:29:18.985Z,2.30
2019-05-06T11:32:54.814Z,2.13
2019-05-06T11:36:01.974Z,2.40
2019-05-06T11:39:07.090Z,2.67
2019-05-06T11:42:24.939Z,3.03
2019-05-06T11:45:17.014Z,2.50
2019-05-06T11:48:22.286Z,2.60
2019-05-06T11:51:28.083Z,2.57
2019-05-06T11:54:33.739Z,2.60
2019-05-06T11:57:41.677Z,3.17
2019-05-06T12:00:45.672Z,2.90
2019-05-06T12:03:49.549Z,2.90
2019-05-06T12:07:09.987Z,3.00
2019-05-06T12:09:59.150Z,3.10
2019-05-06T12:13:03.155Z,5.57
2019-05-06T12:16:07.529Z,3.30
2019-05-06T12:19:13.134Z,3.30
2019-05-06T12:22:17.507Z,3.27
2019-05-06T12:25:23.435Z,2.83
2019-05-06T12:28:28.008Z,2.70
2019-05-06T12:31:32.853Z,2.67
2019-05-06T12:34:37.357Z,2.80
2019-05-06T12:37:44.059Z,2.57
2019-05-06T12:40:48.603Z,2.83
2019-05-06T12:43:53.125Z,2.73
2019-05-06T12:47:04.775Z,2.93
2019-05-06T12:50:08.844Z,2.47
2019-05-06T12:53:13.355Z,2.87
2019-05-06T12:56:17.752Z,3.00
2019-05-06T12:59:22.312Z,2.73
2019-05-06T13:02:26.607Z,3.17
2019-05-06T13:05:31.936Z,2.40
2019-05-06T13:08:54.092Z,3.13
2019-05-06T13:11:43.172Z,3.13
2019-05-06T13:14:47.298Z,3.30
2019-05-06T13:17:53.160Z,3.20
2019-05-06T13:20:57.993Z,3.10
2019-05-06T13:24:05.556Z,2.67
2019-05-06T13:27:12.573Z,2.73
2019-05-06T13:30:17.698Z,2.53
2019-05-06T13:33:30.446Z,2.40
2019-05-06T13:36:35.783Z,2.70
2019-05-06T13:39:40.359Z,2.70
2019-05-06T13:43:03.783Z,2.50
2019-05-06T13:46:15.160Z,2.47
2019-05-06T13:49:37.634Z,2.80
2019-05-06T13:52:43.490Z,7.83
2019-05-06T13:55:47.381Z,2.30
2019-05-06T13:58:52.675Z,3.23
2019-05-06T14:02:16.296Z,3.03
2019-05-06T14:05:21.292Z,4.03
2019-05-06T14:08:25.547Z,2.43
2019-05-06T14:11:29.742Z,3.00
2019-05-06T14:14:33.923Z,15.33
2019-05-06T14:17:37.938Z,3.23
2019-05-06T14:20:42.918Z,3.00
2019-05-06T14:23:47.266Z,2.93
2019-05-06T14:27:02.521Z,3.80
2019-05-06T14:30:13.854Z,6.30
2019-05-06T14:33:19.736Z,3.60
2019-05-06T14:36:27.426Z,4.87
2019-05-06T14:39:49.072Z,6.13
2019-05-06T14:42:38.514Z,7.37
2019-05-06T14:45:42.419Z,3.87
2019-05-06T14:48:47.926Z,2.90
2019-05-06T14:51:53.694Z,2.80
2019-05-06T14:55:07.854Z,3.07
2019-05-06T14:58:12.141Z,3.00
2019-05-06T15:01:16.310Z,2.53
2019-05-06T15:04:22.813Z,2.60
2019-05-06T15:07:26.327Z,2.80
2019-05-06T15:10:32.143Z,2.70
2019-05-06T15:13:36.686Z,2.53
2019-05-06T15:16:42.233Z,2.67
2019-05-06T15:19:46.752Z,2.67
2019-05-06T15:22:52.984Z,3.10
2019-05-06T15:25:57.307Z,2.80
2019-05-06T15:29:03.360Z,2.80
2019-05-06T15:32:24.169Z,3.10
2019-05-06T15:35:47.173Z,2.80
2019-05-06T15:38:52.760Z,3.10
2019-05-06T15:41:56.934Z,3.07
2019-05-06T15:45:01.678Z,2.90
2019-05-06T15:48:05.588Z,3.40
2019-05-06T15:51:12.085Z,2.70
2019-05-06T15:54:15.220Z,2.73
2019-05-06T15:57:19.654Z,2.97
2019-05-06T16:00:23.750Z,3.20
2019-05-06T16:03:28.112Z,2.80
2019-05-06T16:06:33.137Z,2.87
2019-05-06T16:09:37.235Z,3.17
2019-05-06T16:12:44.026Z,3.00
2019-05-06T16:15:48.245Z,3.10
2019-05-06T16:18:52.094Z,2.93
2019-05-06T16:21:56.214Z,3.00
2019-05-06T16:25:07.884Z,3.10
2019-05-06T16:28:13.006Z,2.80
2019-05-06T16:31:17.284Z,3.10
2019-05-06T16:34:22.805Z,2.97
2019-05-06T16:37:27.057Z,3.10
2019-05-06T16:40:33.508Z,3.00
2019-05-06T16:43:37.222Z,3.10
2019-05-06T16:46:42.701Z,3.00
2019-05-06T16:49:46.741Z,3.27
2019-05-06T16:52:52.572Z,3.37
2019-05-06T16:56:02.377Z,3.40
2019-05-06T16:59:06.314Z,3.17
2019-05-06T17:02:22.853Z,2.87
2019-05-06T17:05:45.001Z,2.80
2019-05-06T17:08:49.418Z,3.40
2019-05-06T17:11:53.923Z,3.30
2019-05-06T17:14:57.847Z,3.03
2019-05-06T17:18:03.046Z,3.07
2019-05-06T17:21:07.376Z,3.30
2019-05-06T17:24:13.066Z,3.00
2019-05-06T17:27:17.192Z,3.13
2019-05-06T17:30:42.773Z,5.70
2019-05-06T17:33:47.517Z,5.27
2019-05-06T17:36:53.814Z,18.20
2019-05-06T17:40:07.874Z,7.37
2019-05-06T17:43:04.416Z,3.33
2019-05-06T17:46:08.773Z,3.70
2019-05-06T17:49:16.439Z,3.40
2019-05-06T17:52:22.421Z,3.30
2019-05-06T17:55:26.398Z,2.87
2019-05-06T17:58:30.325Z,4.20
2019-05-06T18:01:44.070Z,4.40
2019-05-06T18:04:48.220Z,3.27
2019-05-06T18:07:52.056Z,3.50
2019-05-06T18:10:56.464Z,3.70
2019-05-06T18:14:00.492Z,3.63
2019-05-06T18:17:04.882Z,3.70
2019-05-06T18:20:09.939Z,3.47
2019-05-06T18:23:13.803Z,3.37
2019-05-06T18:26:18.047Z,3.53
2019-05-06T18:29:22.443Z,3.27
2019-05-06T18:32:27.054Z,3.40
2019-05-06T18:35:31.178Z,5.57
2019-05-06T18:38:35.184Z,6.33
2019-05-06T18:41:39.288Z,4.10
2019-05-06T18:44:43.534Z,3.97
2019-05-06T18:47:47.448Z,4.03
2019-05-06T18:50:52.023Z,3.90
2019-05-06T18:53:56.287Z,3.97
2019-05-06T18:57:04.616Z,4.47
2019-05-06T19:00:07.115Z,3.53
2019-05-06T19:03:12.133Z,4.00
2019-05-06T19:06:16.102Z,4.20
2019-05-06T19:09:39.021Z,4.00
2019-05-06T19:12:43.014Z,4.30
2019-05-06T19:15:47.441Z,4.87
2019-05-06T19:18:52.185Z,7.63
2019-05-06T19:21:56.662Z,6.80
2019-05-06T19:25:02.632Z,6.17
2019-05-06T19:28:06.691Z,5.00
2019-05-06T19:31:12.315Z,4.57
2019-05-06T19:34:16.701Z,5.00
2019-05-06T19:37:23.085Z,5.10
2019-05-06T19:40:26.601Z,4.73
2019-05-06T19:43:32.874Z,4.30
2019-05-06T19:46:37.343Z,4.17
2019-05-06T19:49:42.437Z,3.97
2019-05-06T19:52:46.440Z,4.50
2019-05-06T19:55:50.372Z,4.07
2019-05-06T19:58:54.332Z,4.40
2019-05-06T20:01:58.664Z,4.50
2019-05-06T20:05:07.346Z,4.27
2019-05-06T20:08:24.782Z,4.70
2019-05-06T20:11:33.208Z,4.73
2019-05-06T20:14:37.053Z,4.50
2019-05-06T20:17:42.486Z,4.37
2019-05-06T20:20:46.785Z,4.27
2019-05-06T20:23:52.653Z,4.77
2019-05-06T20:26:57.025Z,4.50
2019-05-06T20:30:03.251Z,5.10
2019-05-06T20:33:06.635Z,4.43
2019-05-06T20:36:12.582Z,5.33
2019-05-06T20:39:16.921Z,5.20
2019-05-06T20:42:22.253Z,5.57
2019-05-06T20:45:26.414Z,5.30
2019-05-06T20:48:32.517Z,5.47
2019-05-06T20:51:36.856Z,5.30
2019-05-06T20:54:42.672Z,5.13
2019-05-06T20:57:46.742Z,5.43
2019-05-06T21:00:52.133Z,5.20
2019-05-06T21:03:56.376Z,5.10
2019-05-06T21:07:00.236Z,5.47
2019-05-06T21:10:05.080Z,5.50
2019-05-06T21:13:08.999Z,5.13
2019-05-06T21:16:13.214Z,5.73
2019-05-06T21:19:17.771Z,6.07
2019-05-06T21:22:22.285Z,5.57
2019-05-06T21:25:26.291Z,5.43
2019-05-06T21:28:30.563Z,5.43
2019-05-06T21:31:35.324Z,5.80
2019-05-06T21:34:40.276Z,5.73
2019-05-06T21:37:44.469Z,7.50
2019-05-06T21:40:48.905Z,8.47
2019-05-06T21:43:52.832Z,7.90
2019-05-06T21:46:56.819Z,5.53
2019-05-06T21:50:00.742Z,5.77
2019-05-06T21:53:04.705Z,5.73
2019-05-06T21:56:09.184Z,5.90
2019-05-06T21:59:13.426Z,5.70
2019-05-06T22:02:20.128Z,6.17
2019-05-06T22:05:24.305Z,5.67
2019-05-06T22:08:28.521Z,5.67
2019-05-06T22:11:33.150Z,5.50
2019-05-06T22:14:37.392Z,5.13
2019-05-06T22:17:42.917Z,5.33
2019-05-06T22:21:04.949Z,5.53
2019-05-06T22:24:08.907Z,5.43
2019-05-06T22:27:13.711Z,5.47
2019-05-06T22:30:18.746Z,5.57
2019-05-06T22:33:22.580Z,5.30
2019-05-06T22:36:26.800Z,5.40
2019-05-06T22:39:31.684Z,5.20
2019-05-06T22:42:36.867Z,5.30
2019-05-06T22:45:42.544Z,5.30
2019-05-06T22:48:46.507Z,5.00
2019-05-06T22:51:52.144Z,5.17
2019-05-06T22:54:55.922Z,5.30
2019-05-06T22:58:02.410Z,5.80
2019-05-06T23:01:12.446Z,5.40
2019-05-06T23:04:17.460Z,5.60
2019-05-06T23:07:22.531Z,5.70
2019-05-06T23:10:26.802Z,5.70
2019-05-06T23:13:30.822Z,5.60
2019-05-06T23:16:35.180Z,5.07
2019-05-06T23:19:39.169Z,6.37
2019-05-06T23:22:43.308Z,5.77
2019-05-06T23:26:06.302Z,5.53
2019-05-06T23:29:10.152Z,5.03
2019-05-06T23:32:14.154Z,5.57
2019-05-06T23:35:18.303Z,4.80
2019-05-06T23:38:58.474Z,5.20
2019-05-06T23:42:38.438Z,5.23
2019-05-06T23:46:18.636Z,5.00
2019-05-06T23:49:59.096Z,5.50
2019-05-06T23:53:38.838Z,5.10
2019-05-06T23:56:44.762Z,5.70
2019-05-06T23:59:48.868Z,5.93
